Time;durP1;ratioP1;P1;durP2;ratioP2;P2;SDS_P1;SDS_P2;PMS_P1;PMS_P2;Temp;Humidity;BMP_temperature;BMP_pressure;BME280_temperature;BME280_humidity;BME280_pressure;Samples;Min_cycle;Max_cycle;Signal;HPM_P1;HPM_P2
2023/06/23 04:00:38;;;;;;;22.77;20.33;;;19.50;99.90;;;;;;5888695;23;20046;-71
2023/06/23 04:03:06;;;;;;;27.17;22.30;;;19.30;99.90;;;;;;5006766;28;20058;-71
2023/06/23 04:05:33;;;;;;;26.65;22.70;;;19.50;99.90;;;;;;4992726;28;20026;-70
2023/06/23 04:08:00;;;;;;;26.65;23.05;;;19.40;99.90;;;;;;4994996;28;20049;-69
2023/06/23 04:10:27;;;;;;;26.63;22.67;;;19.40;99.90;;;;;;5000412;28;20110;-71
2023/06/23 04:12:54;;;;;;;29.55;24.25;;;19.40;99.90;;;;;;4996619;28;20053;-71
2023/06/23 04:15:23;;;;;;;28.75;25.75;;;19.40;99.90;;;;;;5000292;23;20038;-73
2023/06/23 04:17:51;;;;;;;34.78;26.98;;;19.40;99.90;;;;;;4992907;28;20026;-73
2023/06/23 04:20:19;;;;;;;30.95;24.80;;;19.40;99.90;;;;;;4992829;28;20471;-72
2023/06/23 04:22:46;;;;;;;33.28;26.13;;;19.50;99.90;;;;;;4975676;28;20041;-73
2023/06/23 04:25:13;;;;;;;32.00;27.10;;;19.50;99.90;;;;;;4975915;28;20022;-73
2023/06/23 04:27:40;;;;;;;32.30;27.02;;;19.40;99.90;;;;;;4975327;28;20081;-73
2023/06/23 04:30:07;;;;;;;32.88;27.95;;;19.50;99.90;;;;;;4976731;28;20030;-74
2023/06/23 04:32:35;;;;;;;36.60;29.25;;;19.50;99.90;;;;;;4979576;28;20034;-70
2023/06/23 04:35:00;;;;;;;36.70;30.17;;;19.50;99.90;;;;;;4977477;28;20022;-72
2023/06/23 04:37:31;;;;;;;41.03;31.05;;;19.50;99.90;;;;;;4978133;28;20125;-70
2023/06/23 04:40:00;;;;;;;41.22;31.65;;;19.50;99.90;;;;;;4977703;28;20069;-72
2023/06/23 04:42:41;;;;;;;43.75;32.83;;;19.60;99.90;;;;;;4973062;28;20484;-74
2023/06/23 04:45:09;;;;;;;40.20;30.48;;;19.60;99.90;;;;;;4957894;28;20027;-74
2023/06/23 04:47:38;;;;;;;41.78;33.15;;;19.60;99.90;;;;;;4958374;28;20038;-74
2023/06/23 04:50:08;;;;;;;41.83;32.20;;;19.60;99.90;;;;;;4976943;28;20026;-74
2023/06/23 04:52:36;;;;;;;41.60;32.67;;;19.60;99.90;;;;;;4976947;28;20134;-73
2023/06/23 04:55:06;;;;;;;43.60;33.85;;;19.60;99.90;;;;;;4994889;28;20015;-72
2023/06/23 04:57:34;;;;;;;41.55;33.40;;;19.70;99.90;;;;;;4976474;28;20019;-73
2023/06/23 05:00:04;;;;;;;43.00;34.83;;;19.70;99.90;;;;;;4992725;28;20105;-73
2023/06/23 05:02:32;;;;;;;45.35;34.75;;;19.80;99.90;;;;;;4976774;28;20550;-73
2023/06/23 05:04:59;;;;;;;43.22;33.97;;;19.80;99.90;;;;;;4994861;28;20038;-73
2023/06/23 05:07:26;;;;;;;44.10;33.50;;;19.90;99.90;;;;;;4979544;28;20478;-74
2023/06/23 05:09:53;;;;;;;40.85;32.53;;;19.90;99.90;;;;;;4977371;28;20034;-71
2023/06/23 05:12:20;;;;;;;41.35;34.13;;;20.00;99.90;;;;;;4995872;28;20034;-75
2023/06/23 05:14:48;;;;;;;40.55;33.20;;;20.10;99.90;;;;;;4998167;28;20038;-74
2023/06/23 05:17:15;;;;;;;45.70;33.78;;;20.20;99.90;;;;;;4978086;28;20134;-74
2023/06/23 05:19:43;;;;;;;42.45;34.00;;;20.30;99.90;;;;;;4977568;28;20022;-69
2023/06/23 05:22:13;;;;;;;42.90;33.55;;;20.20;99.90;;;;;;4994338;28;20030;-70
2023/06/23 05:24:43;;;;;;;39.67;33.08;;;20.30;99.90;;;;;;4974133;28;20056;-71
2023/06/23 05:27:09;;;;;;;41.47;32.70;;;20.40;99.90;;;;;;4958163;28;20412;-73
2023/06/23 05:29:47;;;;;;;43.22;33.60;;;20.40;99.90;;;;;;4965965;28;20109;-75
2023/06/23 05:32:16;;;;;;;40.30;32.40;;;20.50;99.90;;;;;;4979406;28;20038;-75
2023/06/23 05:34:45;;;;;;;39.80;30.17;;;20.50;99.90;;;;;;4973705;28;20503;-74
2023/06/23 05:37:12;;;;;;;38.75;30.83;;;20.50;99.90;;;;;;4976119;28;20388;-76
2023/06/23 05:39:39;;;;;;;38.22;31.42;;;20.50;99.90;;;;;;4976704;28;20019;-76
2023/06/23 05:42:05;;;;;;;41.20;32.08;;;20.50;99.90;;;;;;4958628;28;20037;-74
2023/06/23 05:44:32;;;;;;;40.40;32.45;;;20.60;99.90;;;;;;4974799;28;20031;-75
2023/06/23 05:46:59;;;;;;;39.72;30.77;;;20.60;99.90;;;;;;4958100;28;20035;-75
2023/06/23 05:49:27;;;;;;;37.80;31.15;;;20.70;99.90;;;;;;4958352;28;20054;-75
2023/06/23 05:51:56;;;;;;;36.42;30.38;;;20.80;99.90;;;;;;4959316;28;20089;-75
2023/06/23 05:54:25;;;;;;;37.75;27.92;;;21.00;99.90;;;;;;4959308;28;20023;-76
2023/06/23 05:56:57;;;;;;;35.08;29.80;;;21.00;99.90;;;;;;4961156;28;20030;-75
2023/06/23 05:59:28;;;;;;;36.00;29.48;;;21.20;99.90;;;;;;4964047;28;20019;-76
2023/06/23 06:01:58;;;;;;;39.15;30.45;;;21.20;99.90;;;;;;4985045;28;20487;-76
2023/06/23 06:04:29;;;;;;;35.55;28.20;;;21.30;99.90;;;;;;4968004;28;20081;-75
2023/06/23 06:06:56;;;;;;;36.15;28.42;;;21.40;99.90;;;;;;4966047;28;20038;-76
2023/06/23 06:09:26;;;;;;;35.00;27.95;;;21.50;99.90;;;;;;4975642;28;20454;-76
2023/06/23 06:11:53;;;;;;;34.65;28.50;;;21.80;99.90;;;;;;4978500;28;20030;-73
2023/06/23 06:14:20;;;;;;;34.67;28.17;;;21.70;99.90;;;;;;4979363;28;20483;-72
2023/06/23 06:16:48;;;;;;;32.28;27.67;;;21.60;99.90;;;;;;4980190;28;20037;-74
2023/06/23 06:19:16;;;;;;;39.47;29.23;;;21.70;99.90;;;;;;4980790;28;20483;-73
2023/06/23 06:21:43;;;;;;;36.25;29.30;;;21.70;99.90;;;;;;4975226;28;20038;-71
2023/06/23 06:24:11;;;;;;;36.20;29.05;;;21.70;99.90;;;;;;4986378;28;20034;-71
2023/06/23 06:26:36;;;;;;;34.08;27.05;;;21.60;99.90;;;;;;4964206;28;20450;-71
2023/06/23 06:29:05;;;;;;;37.97;29.05;;;21.70;99.90;;;;;;4978666;28;20030;-71
2023/06/23 06:31:32;;;;;;;33.20;27.50;;;21.70;99.90;;;;;;4978977;28;20053;-71
2023/06/23 06:34:00;;;;;;;32.80;28.15;;;21.80;99.90;;;;;;4996562;28;20142;-71
2023/06/23 06:36:29;;;;;;;31.35;27.70;;;21.90;99.90;;;;;;4998747;28;20383;-71
2023/06/23 06:38:56;;;;;;;31.77;26.42;;;21.90;99.90;;;;;;4978775;28;20113;-72
2023/06/23 06:41:22;;;;;;;34.88;27.17;;;21.90;99.90;;;;;;4996299;28;20038;-70
2023/06/23 06:43:49;;;;;;;32.70;25.95;;;22.00;99.90;;;;;;4992725;28;20430;-70
2023/06/23 06:46:16;;;;;;;29.42;24.73;;;22.10;99.90;;;;;;4975873;28;20122;-73
2023/06/23 06:48:46;;;;;;;28.77;23.60;;;22.20;99.90;;;;;;4978689;28;20027;-71
2023/06/23 06:51:13;;;;;;;26.10;22.30;;;22.20;99.90;;;;;;4973619;28;20034;-70
2023/06/23 06:53:38;;;;;;;24.45;21.13;;;22.20;99.90;;;;;;4986640;28;20050;-71
2023/06/23 06:56:05;;;;;;;23.20;20.02;;;22.40;99.90;;;;;;4982428;28;20054;-71
2023/06/23 06:58:31;;;;;;;25.00;19.58;;;22.50;99.90;;;;;;4989006;28;20026;-71
2023/06/23 07:00:58;;;;;;;23.88;20.23;;;22.40;99.90;;;;;;4982182;28;20027;-71
2023/06/23 07:03:25;;;;;;;27.58;19.45;;;22.40;99.90;;;;;;4977787;28;20027;-73
2023/06/23 07:05:50;;;;;;;27.58;18.75;;;22.30;99.90;;;;;;4978488;28;20034;-73
2023/06/23 07:08:16;;;;;;;23.08;18.92;;;22.40;99.90;;;;;;4959742;28;20058;-73
2023/06/23 07:10:41;;;;;;;22.23;18.85;;;22.40;99.90;;;;;;4976753;28;20617;-71
2023/06/23 07:13:07;;;;;;;21.75;17.27;;;22.50;99.90;;;;;;4976867;28;20034;-70
2023/06/23 07:15:32;;;;;;;;;;;22.60;99.90;;;;;;4968512;28;20038;-72
2023/06/23 07:17:58;;;;;;;21.30;17.08;;;22.60;99.90;;;;;;4995475;28;19912;-72
2023/06/23 07:20:23;;;;;;;;;;;22.70;99.90;;;;;;4964366;28;20031;-73
2023/06/23 07:22:49;;;;;;;20.83;17.00;;;22.80;99.90;;;;;;4959360;28;19920;-73
2023/06/23 07:25:15;;;;;;;;;;;23.00;99.90;;;;;;4994726;28;20454;-73
2023/06/23 07:27:41;;;;;;;21.10;15.43;;;23.10;99.90;;;;;;4975089;28;20325;-72
2023/06/23 07:30:06;;;;;;;;;;;23.10;99.90;;;;;;4978456;28;20033;-72
2023/06/23 07:32:32;;;;;;;18.27;14.73;;;23.40;99.90;;;;;;4974851;28;20283;-72
2023/06/23 07:34:57;;;;;;;;;;;23.50;99.90;;;;;;4975051;28;20038;-72
2023/06/23 07:37:23;;;;;;;17.58;14.73;;;23.70;99.90;;;;;;4957578;28;19964;-71
2023/06/23 07:39:48;;;;;;;;;;;23.90;99.90;;;;;;4957711;28;20031;-69
2023/06/23 07:42:14;;;;;;;30.90;13.30;;;23.90;99.90;;;;;;4974752;28;19910;-68
2023/06/23 07:44:39;;;;;;;;;;;24.10;99.90;;;;;;4978030;28;20026;-69
2023/06/23 07:47:05;;;;;;;15.35;10.77;;;24.30;99.90;;;;;;4994270;28;19945;-69
2023/06/23 07:49:31;;;;;;;;;;;25.10;99.90;;;;;;4995917;28;20081;-72
2023/06/23 07:52:00;;;;;;;15.35;12.85;;;25.60;99.90;;;;;;4995298;28;19913;-73
2023/06/23 07:54:29;;;;;;;16.23;12.30;;;25.30;99.90;;;;;;4994964;28;20379;-72
2023/06/23 07:56:55;;;;;;;14.73;11.45;;;25.50;99.90;;;;;;4961697;28;20027;-72
2023/06/23 07:59:21;;;;;;;15.90;11.32;;;25.80;99.90;;;;;;4986093;28;20033;-72
2023/06/23 08:01:46;;;;;;;13.55;11.60;;;26.10;99.90;;;;;;4994735;28;20490;-74
2023/06/23 08:04:12;;;;;;;14.07;12.25;;;25.80;99.90;;;;;;4994511;28;20026;-71
2023/06/23 08:06:37;;;;;;;14.15;12.45;;;25.50;99.90;;;;;;4975564;28;20037;-71
2023/06/23 08:09:04;;;;;;;13.32;11.70;;;25.80;99.80;;;;;;4975335;28;20088;-71
2023/06/23 08:11:30;;;;;;;12.50;10.05;;;27.00;98.20;;;;;;4975072;28;20026;-70
2023/06/23 08:13:55;;;;;;;12.50;10.25;;;28.80;96.40;;;;;;4974829;28;20026;-70
2023/06/23 08:16:21;;;;;;;10.93;9.82;;;30.40;94.00;;;;;;4993854;28;20044;-71
2023/06/23 08:18:46;;;;;;;12.80;9.35;;;31.10;91.90;;;;;;4975746;28;20023;-71
2023/06/23 08:21:12;;;;;;;14.02;9.55;;;30.70;91.30;;;;;;4977233;28;20029;-71
2023/06/23 08:23:40;;;;;;;14.02;9.48;;;30.00;91.70;;;;;;4994354;28;20057;-71
2023/06/23 08:26:05;;;;;;;14.85;10.48;;;29.70;92.10;;;;;;4973434;28;20077;-71
2023/06/23 08:28:31;;;;;;;14.65;8.63;;;29.30;92.30;;;;;;4966169;28;20062;-71
2023/06/23 08:30:57;;;;;;;16.90;9.95;;;29.00;92.50;;;;;;4980801;28;20030;-71
2023/06/23 08:33:23;;;;;;;12.18;8.30;;;28.40;93.00;;;;;;4977319;28;20023;-71
2023/06/23 08:35:48;;;;;;;12.73;8.15;;;28.70;93.10;;;;;;4976484;28;20118;-71
2023/06/23 08:38:15;;;;;;;10.60;7.60;;;30.20;91.90;;;;;;4994459;28;20026;-71
2023/06/23 08:40:41;;;;;;;11.48;7.63;;;31.80;88.70;;;;;;4994420;28;20026;-71
2023/06/23 08:43:10;;;;;;;8.50;7.60;;;31.80;86.70;;;;;;4976633;28;20034;-71
2023/06/23 08:45:42;;;;;;;9.68;6.30;;;32.50;85.30;;;;;;4976285;28;20113;-70
2023/06/23 08:48:09;;;;;;;10.95;7.28;;;33.50;83.30;;;;;;4994129;28;20513;-71
2023/06/23 08:50:35;;;;;;;7.28;6.55;;;33.70;81.30;;;;;;4971589;28;20060;-71
2023/06/23 08:53:03;;;;;;;9.63;7.22;;;32.90;81.30;;;;;;4972950;28;20026;-71
2023/06/23 08:55:32;;;;;;;10.45;7.22;;;31.40;83.20;;;;;;4965002;28;20022;-70
2023/06/23 08:58:00;;;;;;;9.68;6.95;;;30.60;85.60;;;;;;4994359;28;20387;-70
2023/06/23 09:00:26;;;;;;;9.10;6.75;;;31.60;84.40;;;;;;4994086;28;20090;-70
2023/06/23 09:02:52;;;;;;;8.90;6.88;;;33.30;81.90;;;;;;4980454;28;20030;-71
2023/06/23 09:05:17;;;;;;;8.65;7.22;;;34.50;78.30;;;;;;4972929;28;20031;-71
2023/06/23 09:07:44;;;;;;;7.50;6.75;;;35.50;76.40;;;;;;4957233;28;20022;-71
2023/06/23 09:10:10;;;;;;;8.02;7.22;;;36.20;74.50;;;;;;4974389;28;20027;-71
2023/06/23 09:12:42;;;;;;;8.52;6.93;;;35.80;73.60;;;;;;4956977;28;20506;-71
2023/06/23 09:15:10;;;;;;;7.82;7.03;;;34.40;74.90;;;;;;4974437;28;20034;-70
2023/06/23 09:17:36;;;;;;;7.13;6.00;;;33.10;76.10;;;;;;4972630;28;20022;-71
2023/06/23 09:20:03;;;;;;;8.35;6.07;;;31.60;77.80;;;;;;4987121;28;20057;-71
2023/06/23 09:22:31;;;;;;;8.15;6.90;;;30.80;79.30;;;;;;4994258;28;20073;-71
2023/06/23 09:24:56;;;;;;;5.95;5.25;;;31.70;77.80;;;;;;4975112;28;20080;-71
2023/06/23 09:27:39;;;;;;;5.70;5.20;;;33.20;75.50;;;;;;4991491;28;20030;-71
2023/06/23 09:30:05;;;;;;;7.78;5.25;;;34.00;72.70;;;;;;4992744;28;20056;-70
2023/06/23 09:32:32;;;;;;;7.22;5.55;;;33.90;72.30;;;;;;4991446;28;20058;-70
2023/06/23 09:34:58;;;;;;;6.78;5.32;;;34.50;71.40;;;;;;4974241;28;20070;-70
2023/06/23 09:37:24;;;;;;;7.72;5.82;;;35.30;70.50;;;;;;4991913;28;20034;-70
2023/06/23 09:39:55;;;;;;;8.02;5.38;;;34.70;71.40;;;;;;4973256;28;20113;-70
2023/06/23 09:42:23;;;;;;;7.45;5.43;;;34.20;71.20;;;;;;4976172;28;20054;-70
2023/06/23 09:44:49;;;;;;;6.10;5.00;;;34.50;71.20;;;;;;4993823;28;20023;-69
2023/06/23 09:47:16;;;;;;;6.47;5.13;;;35.00;69.90;;;;;;4976167;28;20530;-71
2023/06/23 09:49:47;;;;;;;7.28;5.30;;;33.90;70.20;;;;;;4977650;28;20161;-70
2023/06/23 09:52:21;;;;;;;9.27;5.75;;;32.20;72.10;;;;;;4958863;28;20026;-69
2023/06/23 09:54:46;;;;;;;5.28;4.78;;;32.60;72.40;;;;;;4958650;28;20030;-72
2023/06/23 09:57:14;;;;;;;5.30;4.65;;;34.10;70.80;;;;;;4958520;28;20023;-70
2023/06/23 09:59:41;;;;;;;6.63;4.50;;;35.40;68.50;;;;;;4975836;28;20029;-71
2023/06/23 10:02:09;;;;;;;6.03;3.90;;;35.30;66.50;;;;;;4975380;28;20038;-71
2023/06/23 10:04:35;;;;;;;4.50;4.00;;;35.30;66.40;;;;;;4986486;28;20029;-71
2023/06/23 10:07:21;;;;;;;6.07;4.20;;;35.90;65.80;;;;;;4979506;28;20570;-72
2023/06/23 10:09:51;;;;;;;;;;;36.70;65.30;;;;;;4980021;28;20041;-72
2023/06/23 10:12:21;;;;;;;6.40;5.70;;;36.50;66.00;;;;;;4977713;28;20016;-72
2023/06/23 10:14:50;;;;;;;5.40;4.78;;;35.40;67.20;;;;;;4997469;23;20493;-71
2023/06/23 10:17:16;;;;;;;5.18;4.68;;;33.70;67.50;;;;;;4994203;28;20026;-72
2023/06/23 10:19:45;;;;;;;4.95;4.40;;;31.70;70.00;;;;;;4982650;28;20067;-71
2023/06/23 10:22:14;;;;;;;4.68;4.10;;;30.80;72.20;;;;;;4999329;28;20058;-72
2023/06/23 10:24:44;;;;;;;5.70;4.75;;;31.40;70.90;;;;;;4984215;28;20054;-71
2023/06/23 10:27:13;;;;;;;6.13;4.68;;;31.40;70.80;;;;;;4966212;28;20082;-72
2023/06/23 10:29:41;;;;;;;6.05;5.45;;;30.60;72.10;;;;;;4980848;28;20019;-71
2023/06/23 10:32:09;;;;;;;5.93;5.43;;;29.70;74.90;;;;;;4981068;28;20019;-71
2023/06/23 10:34:36;;;;;;;9.68;6.15;;;28.90;77.40;;;;;;4963844;28;20406;-71
2023/06/23 10:37:05;;;;;;;8.65;5.63;;;29.40;78.10;;;;;;4964950;28;20023;-71
2023/06/23 10:39:34;;;;;;;6.22;5.13;;;31.50;75.60;;;;;;4987030;28;20538;-71
2023/06/23 10:42:00;;;;;;;7.20;4.82;;;32.60;73.30;;;;;;4982983;28;20062;-72
2023/06/23 10:44:28;;;;;;;4.63;4.05;;;33.30;71.10;;;;;;4963557;28;20085;-72
2023/06/23 10:46:54;;;;;;;7.47;5.50;;;33.70;67.60;;;;;;4979074;28;20033;-71
2023/06/23 10:49:21;;;;;;;6.32;5.35;;;34.30;69.10;;;;;;4979251;28;20027;-71
2023/06/23 10:51:47;;;;;;;6.00;5.40;;;34.70;68.70;;;;;;4962772;28;20027;-71
2023/06/23 10:54:25;;;;;;;8.32;5.55;;;33.80;69.20;;;;;;4987776;28;20049;-71
2023/06/23 10:56:52;;;;;;;8.75;5.85;;;32.10;71.30;;;;;;4996524;28;20033;-71
2023/06/23 10:59:28;;;;;;;9.35;5.97;;;30.50;74.00;;;;;;4985584;28;20026;-70
2023/06/23 11:02:00;;;;;;;5.93;5.32;;;30.10;76.10;;;;;;4978697;28;20097;-71
2023/06/23 11:04:30;;;;;;;6.05;5.45;;;31.80;74.50;;;;;;4978030;28;20066;-71
2023/06/23 11:07:06;;;;;;;6.63;4.95;;;33.20;71.70;;;;;;4997746;28;20026;-72
2023/06/23 11:09:54;;;;;;;8.43;4.55;;;34.80;69.80;;;;;;4997805;28;20022;-71
2023/06/23 11:12:45;;;;;;;6.63;3.40;;;35.80;66.00;;;;;;4997699;28;20026;-71
2023/06/23 11:15:13;;;;;;;4.10;3.70;;;34.80;62.70;;;;;;4973668;28;20129;-71
2023/06/23 11:17:49;;;;;;;4.40;4.00;;;33.30;64.70;;;;;;4991308;28;20068;-71
2023/06/23 11:20:24;;;;;;;3.67;3.25;;;32.00;66.70;;;;;;4982340;28;20061;-71
2023/06/23 11:23:10;;;;;;;4.40;3.25;;;30.80;69.30;;;;;;4986807;28;20026;-71
2023/06/23 11:25:49;;;;;;;3.88;3.47;;;30.20;71.10;;;;;;4976687;28;20019;-71
2023/06/23 11:28:35;;;;;;;4.25;3.47;;;29.90;71.90;;;;;;4979246;28;20109;-70
2023/06/23 11:31:07;;;;;;;5.50;4.30;;;29.70;71.50;;;;;;4979862;28;20081;-70
2023/06/23 11:33:38;;;;;;;6.57;4.13;;;29.40;74.00;;;;;;4970432;28;20066;-70
2023/06/23 11:36:06;;;;;;;4.00;3.40;;;29.10;73.30;;;;;;4991425;28;20040;-70
2023/06/23 11:38:32;;;;;;;5.82;3.28;;;28.90;72.50;;;;;;4961433;28;20107;-71
2023/06/23 11:40:59;;;;;;;6.03;3.00;;;28.90;71.80;;;;;;4995511;28;20487;-71
2023/06/23 11:43:24;;;;;;;6.00;3.60;;;28.60;71.00;;;;;;4991071;28;20015;-71
2023/06/23 11:45:56;;;;;;;3.75;3.33;;;28.30;71.90;;;;;;4980311;28;20552;-72
2023/06/23 11:48:28;;;;;;;7.40;3.50;;;27.90;72.10;;;;;;5000331;28;20029;-70
2023/06/23 11:50:55;;;;;;;3.88;3.22;;;27.50;73.20;;;;;;4967794;28;20022;-70
2023/06/23 11:53:20;;;;;;;4.28;3.10;;;27.20;73.80;;;;;;4997030;28;20146;-72
2023/06/23 11:55:48;;;;;;;4.13;3.03;;;27.30;74.40;;;;;;5002912;28;20045;-73
2023/06/23 11:58:14;;;;;;;4.95;3.25;;;27.70;73.40;;;;;;4999431;28;20041;-71
2023/06/23 12:00:39;;;;;;;5.80;3.03;;;27.70;73.60;;;;;;4968499;28;20027;-73
2023/06/23 12:03:05;;;;;;;4.82;3.05;;;27.60;73.00;;;;;;4958624;28;20039;-71
2023/06/23 12:05:31;;;;;;;6.00;3.22;;;27.60;73.30;;;;;;4975612;28;20044;-72
2023/06/23 12:07:56;;;;;;;4.75;3.33;;;27.60;72.50;;;;;;4982756;28;20031;-72
2023/06/23 12:10:24;;;;;;;5.35;3.17;;;27.60;71.80;;;;;;4963936;28;20042;-73
2023/06/23 12:12:52;;;;;;;3.60;2.80;;;27.70;71.70;;;;;;4981621;28;20026;-73
2023/06/23 12:15:21;;;;;;;7.13;2.75;;;27.70;70.50;;;;;;4979640;28;20117;-72
2023/06/23 12:17:46;;;;;;;4.32;2.78;;;27.70;70.80;;;;;;4996761;28;20146;-72
2023/06/23 12:20:16;;;;;;;3.88;3.00;;;27.70;71.30;;;;;;5001607;28;20046;-72
2023/06/23 12:22:41;;;;;;;4.45;2.70;;;27.70;69.90;;;;;;4991825;28;20051;-73
2023/06/23 12:25:08;;;;;;;4.22;2.38;;;27.90;71.30;;;;;;5002168;28;20081;-73
2023/06/23 12:27:36;;;;;;;6.20;3.10;;;28.30;70.30;;;;;;5000541;28;20022;-72
2023/06/23 12:30:18;;;;;;;9.25;3.20;;;28.50;70.70;;;;;;4999341;28;20081;-72
2023/06/23 12:32:43;;;;;;;4.65;3.70;;;28.30;71.00;;;;;;4982174;28;20795;-72
2023/06/23 12:35:09;;;;;;;3.95;2.85;;;28.20;71.20;;;;;;4997629;28;20042;-71
2023/06/23 12:37:48;;;;;;;4.22;3.10;;;28.30;71.30;;;;;;4993812;28;20026;-72
2023/06/23 12:40:29;;;;;;;4.28;2.72;;;28.40;71.30;;;;;;4996035;28;20033;-72
2023/06/23 12:42:56;;;;;;;4.15;3.03;;;28.60;70.60;;;;;;4996371;28;20101;-73
2023/06/23 12:45:24;;;;;;;4.07;2.90;;;28.60;70.00;;;;;;4977620;28;20026;-69
2023/06/23 12:47:51;;;;;;;4.05;2.53;;;28.60;69.20;;;;;;4980373;28;20027;-71
2023/06/23 12:50:29;;;;;;;3.05;2.70;;;28.50;68.60;;;;;;4989103;28;20026;-69
2023/06/23 12:52:55;;;;;;;3.35;3.03;;;28.20;68.80;;;;;;4974890;28;20551;-68
2023/06/23 12:55:21;;;;;;;3.47;2.78;;;27.90;69.20;;;;;;4975519;28;20023;-69
2023/06/23 12:57:47;;;;;;;4.18;2.88;;;27.50;70.30;;;;;;4976254;28;20046;-69
2023/06/23 13:00:13;;;;;;;3.10;2.60;;;27.30;71.00;;;;;;4981709;28;20126;-68
2023/06/23 13:02:39;;;;;;;4.03;3.10;;;27.20;72.10;;;;;;4990923;28;20027;-69
2023/06/23 13:05:05;;;;;;;4.47;2.90;;;27.20;72.10;;;;;;4992930;28;20134;-71
2023/06/23 13:07:30;;;;;;;3.40;2.80;;;27.20;71.80;;;;;;4986719;28;20029;-71
2023/06/23 13:09:56;;;;;;;4.72;2.80;;;27.20;72.20;;;;;;4977008;28;20026;-70
2023/06/23 13:12:22;;;;;;;4.80;3.17;;;27.30;73.30;;;;;;4976949;28;20033;-72
2023/06/23 13:14:47;;;;;;;4.68;3.05;;;27.50;72.20;;;;;;4977059;28;20038;-71
2023/06/23 13:17:13;;;;;;;4.72;3.03;;;27.50;72.20;;;;;;4994539;28;20034;-70
2023/06/23 13:19:39;;;;;;;3.40;3.00;;;27.40;72.20;;;;;;4989766;28;20023;-71
2023/06/23 13:22:05;;;;;;;3.20;2.58;;;27.30;72.40;;;;;;4975290;28;20407;-74
2023/06/23 13:24:31;;;;;;;4.05;3.13;;;27.40;71.10;;;;;;4979506;28;20441;-71
2023/06/23 13:26:57;;;;;;;2.97;2.42;;;27.60;71.20;;;;;;4978947;28;20027;-70
2023/06/23 13:29:22;;;;;;;5.55;3.67;;;27.70;71.50;;;;;;4981259;28;20078;-70
2023/06/23 13:31:48;;;;;;;5.32;2.80;;;28.00;70.90;;;;;;4998362;28;20387;-71
2023/06/23 13:34:14;;;;;;;6.13;2.95;;;28.10;71.10;;;;;;4962255;28;20538;-71
2023/06/23 13:36:39;;;;;;;2.92;2.35;;;28.00;70.80;;;;;;4979527;28;20379;-71
2023/06/23 13:39:05;;;;;;;4.18;2.65;;;27.90;70.40;;;;;;4985615;28;20037;-72
2023/06/23 13:41:30;;;;;;;3.28;2.75;;;27.90;70.70;;;;;;4998024;28;20041;-71
2023/06/23 13:43:56;;;;;;;3.88;2.70;;;27.90;69.90;;;;;;4981535;28;20037;-71
2023/06/23 13:46:22;;;;;;;3.78;2.75;;;28.10;68.90;;;;;;4980262;28;20036;-72
2023/06/23 13:48:47;;;;;;;5.05;2.50;;;28.20;69.50;;;;;;4998390;28;20031;-72
2023/06/23 13:51:13;;;;;;;4.25;2.53;;;28.30;69.00;;;;;;4998133;28;20483;-69
2023/06/23 13:53:39;;;;;;;6.03;2.78;;;28.40;69.40;;;;;;4997069;28;20019;-69
2023/06/23 13:56:05;;;;;;;3.58;2.50;;;28.40;68.50;;;;;;4998295;28;20057;-70
2023/06/23 13:58:30;;;;;;;4.63;2.42;;;28.40;68.00;;;;;;4981449;28;20033;-71
2023/06/23 14:00:56;;;;;;;3.03;2.20;;;28.20;68.90;;;;;;4998887;28;20031;-70
2023/06/23 14:03:21;;;;;;;3.17;2.35;;;28.00;67.80;;;;;;4998678;28;20034;-71
2023/06/23 14:05:47;;;;;;;3.70;2.75;;;27.80;67.70;;;;;;4978094;28;20064;-70
2023/06/23 14:08:13;;;;;;;3.60;2.92;;;27.80;68.80;;;;;;4990456;28;20027;-71
2023/06/23 14:10:38;;;;;;;3.70;2.55;;;27.80;70.10;;;;;;4979924;28;20410;-71
2023/06/23 14:13:04;;;;;;;3.75;2.85;;;27.80;69.10;;;;;;4997556;28;20100;-66
2023/06/23 14:15:29;;;;;;;5.30;2.97;;;27.80;69.20;;;;;;4979480;28;20037;-71
2023/06/23 14:17:55;;;;;;;3.17;2.80;;;27.70;69.20;;;;;;4997420;28;20109;-72
2023/06/23 14:20:21;;;;;;;3.65;2.75;;;27.70;69.10;;;;;;4992784;28;20027;-68
2023/06/23 14:22:47;;;;;;;2.85;2.40;;;27.70;69.30;;;;;;4992057;28;20034;-70
2023/06/23 14:25:12;;;;;;;2.53;2.33;;;27.80;69.60;;;;;;4997948;28;20029;-72
2023/06/23 14:27:38;;;;;;;4.78;2.80;;;27.80;69.10;;;;;;4999179;28;20028;-71
2023/06/23 14:30:04;;;;;;;3.40;2.00;;;27.80;69.80;;;;;;4998524;28;20070;-71
2023/06/23 14:32:33;;;;;;;3.38;2.47;;;27.50;69.40;;;;;;4980313;28;20030;-70
2023/06/23 14:34:58;;;;;;;3.08;2.50;;;27.30;70.90;;;;;;4997759;28;20463;-72
2023/06/23 14:37:24;;;;;;;3.67;2.53;;;27.10;69.70;;;;;;4998948;28;20076;-71
2023/06/23 14:39:50;;;;;;;4.03;2.22;;;26.90;69.50;;;;;;4997611;28;20112;-71
2023/06/23 14:42:15;;;;;;;3.42;2.17;;;26.80;69.80;;;;;;4997281;28;20157;-70
2023/06/23 14:44:41;;;;;;;5.57;2.75;;;26.80;70.10;;;;;;4997614;28;20376;-71
2023/06/23 14:47:06;;;;;;;4.85;3.05;;;26.80;71.10;;;;;;4997687;28;20092;-71
2023/06/23 14:49:32;;;;;;;4.13;2.83;;;26.90;71.50;;;;;;4997397;28;20029;-71
2023/06/23 14:52:01;;;;;;;3.35;2.45;;;27.00;70.90;;;;;;4991478;28;20033;-69
2023/06/23 14:54:27;;;;;;;4.25;3.20;;;27.10;72.00;;;;;;4978186;28;20030;-70
2023/06/23 14:56:52;;;;;;;4.47;3.20;;;27.00;71.80;;;;;;4996546;28;20105;-70
2023/06/23 14:59:18;;;;;;;4.28;2.45;;;27.00;71.30;;;;;;4996470;28;20479;-69
2023/06/23 15:01:44;;;;;;;3.50;2.42;;;27.00;70.80;;;;;;4996511;28;20027;-70
2023/06/23 15:04:09;;;;;;;3.00;2.35;;;27.00;70.30;;;;;;4976358;28;20074;-72
2023/06/23 15:06:37;;;;;;;2.63;2.40;;;27.00;70.00;;;;;;4977711;28;20102;-68
2023/06/23 15:09:02;;;;;;;3.90;2.60;;;27.30;70.30;;;;;;4977330;28;20027;-68
2023/06/23 15:11:28;;;;;;;3.97;2.97;;;27.50;69.80;;;;;;4987774;28;20033;-70
2023/06/23 15:13:54;;;;;;;3.97;2.95;;;27.70;68.70;;;;;;4977344;28;20038;-72
2023/06/23 15:16:19;;;;;;;3.85;3.45;;;27.90;67.90;;;;;;4979593;28;20031;-72
2023/06/23 15:18:45;;;;;;;2.72;2.20;;;28.10;68.70;;;;;;4980307;28;20111;-70
2023/06/23 15:21:11;;;;;;;5.13;2.72;;;28.00;66.90;;;;;;4990129;28;20034;-72
2023/06/23 15:23:36;;;;;;;2.58;2.35;;;27.90;67.10;;;;;;4989257;28;20034;-73
2023/06/23 15:26:02;;;;;;;5.90;5.18;;;27.80;67.50;;;;;;4968292;28;20428;-69
2023/06/23 15:28:29;;;;;;;3.03;2.55;;;27.70;68.50;;;;;;4972042;28;20384;-72
2023/06/23 15:30:56;;;;;;;3.78;2.40;;;27.60;68.30;;;;;;4975929;28;20022;-71
2023/06/23 15:33:25;;;;;;;3.03;2.70;;;27.60;68.60;;;;;;4993256;28;20110;-69
2023/06/23 15:35:51;;;;;;;4.13;2.97;;;27.60;68.40;;;;;;4992625;28;20022;-71
2023/06/23 15:38:17;;;;;;;4.25;2.80;;;27.60;68.60;;;;;;4979249;28;20022;-71
2023/06/23 15:40:46;;;;;;;2.78;2.42;;;27.70;68.40;;;;;;4996924;28;20133;-70
2023/06/23 15:43:15;;;;;;;4.60;2.17;;;27.70;67.00;;;;;;4997012;28;20033;-73
2023/06/23 15:45:41;;;;;;;3.63;2.03;;;27.70;67.80;;;;;;4990166;28;20109;-71
2023/06/23 15:48:08;;;;;;;4.68;2.55;;;27.70;67.50;;;;;;4966589;28;20099;-71
2023/06/23 15:50:35;;;;;;;3.20;2.58;;;27.70;68.20;;;;;;4977395;28;20614;-69
2023/06/23 15:53:01;;;;;;;4.25;2.40;;;27.50;67.50;;;;;;4993362;28;20042;-70
2023/06/23 15:55:27;;;;;;;4.65;2.60;;;27.40;68.10;;;;;;4996866;28;20237;-69
2023/06/23 15:57:52;;;;;;;2.40;2.20;;;27.30;68.80;;;;;;4997537;28;20018;-71
2023/06/23 16:00:19;;;;;;;4.57;2.95;;;27.10;67.80;;;;;;4992582;28;20154;-71
2023/06/23 16:02:44;;;;;;;5.13;3.92;;;27.00;68.00;;;;;;4976125;28;20033;-71
2023/06/23 16:05:10;;;;;;;3.63;2.88;;;26.90;69.20;;;;;;4998282;28;20453;-70
2023/06/23 16:07:36;;;;;;;3.35;2.55;;;26.90;68.90;;;;;;4998458;28;20030;-69
2023/06/23 16:10:01;;;;;;;5.07;2.42;;;26.90;68.30;;;;;;4998772;28;20022;-71
2023/06/23 16:12:27;;;;;;;3.20;2.47;;;26.90;67.80;;;;;;4999686;28;20087;-70
2023/06/23 16:14:52;;;;;;;3.85;2.20;;;26.80;68.10;;;;;;5000068;28;20038;-68
2023/06/23 16:17:18;;;;;;;4.63;2.80;;;26.90;68.70;;;;;;4998483;28;20026;-67
2023/06/23 16:19:44;;;;;;;5.72;2.80;;;26.90;68.00;;;;;;5003404;28;20022;-68
2023/06/23 16:22:09;;;;;;;3.90;2.65;;;26.90;68.50;;;;;;4998973;28;20049;-67
2023/06/23 16:24:35;;;;;;;3.80;2.60;;;26.90;68.10;;;;;;5004260;28;20034;-67
2023/06/23 16:27:00;;;;;;;2.88;2.40;;;26.80;67.90;;;;;;4987305;28;20026;-67
2023/06/23 16:29:26;;;;;;;2.75;2.50;;;26.80;68.10;;;;;;4997532;28;20030;-67
2023/06/23 16:31:51;;;;;;;3.13;2.35;;;26.60;68.20;;;;;;4995601;28;20038;-67
2023/06/23 16:34:17;;;;;;;3.35;2.33;;;26.70;68.30;;;;;;4996040;28;20022;-67
2023/06/23 16:36:44;;;;;;;3.22;2.45;;;26.80;68.00;;;;;;4996335;28;20043;-65
2023/06/23 16:39:09;;;;;;;3.25;2.42;;;26.80;68.40;;;;;;4980661;28;20097;-67
2023/06/23 16:41:35;;;;;;;5.03;2.38;;;26.70;68.00;;;;;;4976023;28;20224;-66
2023/06/23 16:44:01;;;;;;;3.22;2.58;;;26.60;67.80;;;;;;4976036;28;20472;-67